createdAt,value
2023-03-21T00:02:04.315Z,2.41
2023-03-21T00:04:44.587Z,2.34
2023-03-21T00:07:17.523Z,2.42
2023-03-21T00:09:44.257Z,2.39
2023-03-21T00:12:11.842Z,2.34
2023-03-21T00:14:39.330Z,2.30
2023-03-21T00:17:06.206Z,2.26
2023-03-21T00:19:33.212Z,2.28
2023-03-21T00:24:48.952Z,2.33
2023-03-21T00:27:42.665Z,2.35
2023-03-21T00:30:03.312Z,2.36
2023-03-21T00:32:30.311Z,2.36
2023-03-21T00:35:16.340Z,2.42
2023-03-21T00:37:43.680Z,2.46
2023-03-21T00:40:23.148Z,2.44
2023-03-21T00:42:52.027Z,2.39
2023-03-21T00:45:19.490Z,2.38
2023-03-21T00:47:46.386Z,2.36
2023-03-21T00:50:13.613Z,2.40
2023-03-21T00:52:41.434Z,2.30
2023-03-21T00:55:13.832Z,2.47
2023-03-21T00:57:42.277Z,2.46
2023-03-21T01:00:10.800Z,2.44
2023-03-21T01:02:38.131Z,2.37
2023-03-21T01:05:05.638Z,2.45
2023-03-21T01:07:32.449Z,2.51
2023-03-21T01:09:59.220Z,2.53
2023-03-21T01:12:26.011Z,2.53
2023-03-21T01:14:52.729Z,2.55
2023-03-21T01:17:19.509Z,2.56
2023-03-21T01:19:51.980Z,2.58
2023-03-21T01:22:19.942Z,2.59
2023-03-21T01:24:54.156Z,2.63
2023-03-21T01:27:23.743Z,2.69
2023-03-21T01:29:50.519Z,2.71
2023-03-21T01:32:17.241Z,2.73
2023-03-21T01:34:43.942Z,2.74
2023-03-21T01:37:10.880Z,2.79
2023-03-21T01:39:37.844Z,2.81
2023-03-21T01:42:04.695Z,2.82
2023-03-21T01:44:31.817Z,2.83
2023-03-21T01:47:10.597Z,2.80
2023-03-21T01:49:46.639Z,2.80
2023-03-21T01:52:29.629Z,2.83
2023-03-21T01:54:57.696Z,2.84
2023-03-21T01:57:41.009Z,2.83
2023-03-21T02:00:15.455Z,2.80
2023-03-21T02:02:52.616Z,2.78
2023-03-21T02:05:29.014Z,2.76
2023-03-21T02:07:55.901Z,2.76
2023-03-21T02:10:22.787Z,2.63
2023-03-21T02:12:50.070Z,2.72
2023-03-21T02:15:16.918Z,2.74
2023-03-21T02:18:12.146Z,2.78
2023-03-21T02:21:03.465Z,2.81
2023-03-21T02:24:00.914Z,2.83
2023-03-21T02:27:03.457Z,2.82
2023-03-21T02:29:30.920Z,2.75
2023-03-21T02:32:37.017Z,2.75
2023-03-21T02:35:10.885Z,2.74
2023-03-21T02:37:52.002Z,2.74
2023-03-21T02:40:37.593Z,2.74
2023-03-21T02:43:07.247Z,2.76
2023-03-21T02:45:49.846Z,2.80
2023-03-21T02:48:48.098Z,2.82
2023-03-21T02:51:21.207Z,2.67
2023-03-21T02:54:30.334Z,2.82
2023-03-21T02:57:04.497Z,2.80
2023-03-21T02:59:34.064Z,2.81
2023-03-21T03:02:03.192Z,2.79
2023-03-21T03:04:30.019Z,2.78
2023-03-21T03:07:17.836Z,2.77
2023-03-21T03:09:57.413Z,2.72
2023-03-21T03:12:44.761Z,2.70
2023-03-21T03:15:23.881Z,2.73
2023-03-21T03:18:28.216Z,2.79
2023-03-21T03:21:16.264Z,2.81
2023-03-21T03:23:55.820Z,2.83
2023-03-21T03:26:58.056Z,2.80
2023-03-21T03:29:28.281Z,2.75
2023-03-21T03:32:02.081Z,2.75
2023-03-21T03:34:42.232Z,2.75
2023-03-21T03:37:14.288Z,2.78
2023-03-21T03:39:56.142Z,2.76
2023-03-21T03:42:34.752Z,2.73
2023-03-21T03:45:03.075Z,2.70
2023-03-21T03:47:37.992Z,2.70
2023-03-21T03:50:25.923Z,2.70
2023-03-21T03:53:01.281Z,2.66
2023-03-21T03:55:34.697Z,2.73
2023-03-21T03:58:04.673Z,2.75
2023-03-21T04:00:34.435Z,2.78
2023-03-21T04:03:01.389Z,2.79
2023-03-21T04:05:28.246Z,2.78
2023-03-21T04:07:54.963Z,2.76
2023-03-21T04:10:22.820Z,2.74
2023-03-21T04:12:50.120Z,2.64
2023-03-21T04:15:19.198Z,2.74
2023-03-21T04:17:46.393Z,2.76
2023-03-21T04:20:20.991Z,2.75
2023-03-21T04:22:57.475Z,2.75
2023-03-21T04:25:33.281Z,2.78
2023-03-21T04:28:01.154Z,2.81
2023-03-21T04:30:27.951Z,2.81
2023-03-21T04:32:56.874Z,2.68
2023-03-21T04:35:24.824Z,2.80
2023-03-21T04:37:51.833Z,2.82
2023-03-21T04:40:18.983Z,2.83
2023-03-21T04:42:47.926Z,2.85
2023-03-21T04:45:16.283Z,2.87
2023-03-21T04:47:43.742Z,2.91
2023-03-21T04:50:11.638Z,2.95
2023-03-21T04:52:38.529Z,3.00
2023-03-21T04:55:05.855Z,3.02
2023-03-21T04:57:32.582Z,3.02
2023-03-21T04:59:59.365Z,3.00
2023-03-21T05:02:26.258Z,3.03
2023-03-21T05:04:53.233Z,3.06
2023-03-21T05:07:19.946Z,3.10
2023-03-21T05:09:46.810Z,3.17
2023-03-21T05:12:13.626Z,3.20
2023-03-21T05:14:40.492Z,3.24
2023-03-21T05:17:07.272Z,3.30
2023-03-21T05:19:40.557Z,3.35
2023-03-21T05:22:09.633Z,3.43
2023-03-21T05:24:39.447Z,3.47
2023-03-21T05:27:06.229Z,3.56
2023-03-21T05:29:33.977Z,3.62
2023-03-21T05:32:01.618Z,3.55
2023-03-21T05:34:29.100Z,3.72
2023-03-21T05:36:56.339Z,3.77
2023-03-21T05:39:23.026Z,3.82
2023-03-21T05:41:49.800Z,3.83
2023-03-21T05:44:16.758Z,3.82
2023-03-21T05:46:43.670Z,3.80
2023-03-21T05:49:12.456Z,3.88
2023-03-21T05:51:39.286Z,3.93
2023-03-21T05:54:06.792Z,3.98
2023-03-21T05:56:33.531Z,4.04
2023-03-21T05:59:00.395Z,4.12
2023-03-21T06:01:27.137Z,4.17
2023-03-21T06:03:54.045Z,4.23
2023-03-21T06:06:21.008Z,4.26
2023-03-21T06:08:48.914Z,4.25
2023-03-21T06:11:26.103Z,4.28
2023-03-21T06:13:52.977Z,4.34
2023-03-21T06:16:19.813Z,4.42
2023-03-21T06:18:46.753Z,4.48
2023-03-21T06:21:13.550Z,4.53
2023-03-21T06:23:40.463Z,4.55
2023-03-21T06:26:07.569Z,4.60
2023-03-21T06:28:34.659Z,4.67
2023-03-21T06:31:01.412Z,4.76
2023-03-21T06:33:28.186Z,4.83
2023-03-21T06:35:57.367Z,4.83
2023-03-21T06:38:25.361Z,4.88
2023-03-21T06:40:52.869Z,4.89
2023-03-21T06:43:19.801Z,5.00
2023-03-21T06:45:46.712Z,5.06
2023-03-21T06:48:13.519Z,5.01
2023-03-21T06:50:40.826Z,5.13
2023-03-21T06:53:07.640Z,5.15
2023-03-21T06:55:34.388Z,5.19
2023-03-21T06:58:01.055Z,5.28
2023-03-21T07:00:28.015Z,5.35
2023-03-21T07:02:54.832Z,5.40
2023-03-21T07:05:21.723Z,5.41
2023-03-21T07:07:48.771Z,5.38
2023-03-21T07:10:16.106Z,5.27
2023-03-21T07:12:42.875Z,5.12
2023-03-21T07:15:10.637Z,5.26
2023-03-21T07:17:37.467Z,5.30
2023-03-21T07:20:08.083Z,5.37
2023-03-21T07:22:36.156Z,5.43
2023-03-21T07:25:05.484Z,5.51
2023-03-21T07:27:32.631Z,5.52
2023-03-21T07:29:59.420Z,5.59
2023-03-21T07:32:30.046Z,5.63
2023-03-21T07:34:56.874Z,5.63
2023-03-21T07:37:24.074Z,5.65
2023-03-21T07:39:51.522Z,5.72
2023-03-21T07:42:18.646Z,5.82
2023-03-21T07:44:45.688Z,5.82
2023-03-21T07:47:12.500Z,6.06
2023-03-21T07:49:39.458Z,6.14
2023-03-21T07:52:07.984Z,6.13
2023-03-21T07:54:34.714Z,6.19
2023-03-21T07:57:01.583Z,6.27
2023-03-21T07:59:28.351Z,6.31
2023-03-21T08:01:55.100Z,6.31
2023-03-21T08:04:22.697Z,6.36
2023-03-21T08:06:51.254Z,6.43
2023-03-21T08:09:18.052Z,6.38
2023-03-21T08:11:44.760Z,6.37
2023-03-21T08:14:11.546Z,6.41
2023-03-21T08:16:38.451Z,6.47
2023-03-21T08:19:05.299Z,6.46
2023-03-21T08:21:32.151Z,6.44
2023-03-21T08:23:58.950Z,6.45
2023-03-21T08:26:26.621Z,6.45
2023-03-21T08:28:53.417Z,6.48
2023-03-21T08:31:22.077Z,6.44
2023-03-21T08:33:53.776Z,6.27
2023-03-21T08:36:22.140Z,6.31
2023-03-21T08:38:53.029Z,6.32
2023-03-21T08:41:22.150Z,6.22
2023-03-21T08:43:49.218Z,6.44
2023-03-21T08:46:16.290Z,6.52
2023-03-21T08:48:43.138Z,6.50
2023-03-21T08:51:09.838Z,6.50
2023-03-21T08:53:36.554Z,6.49
2023-03-21T08:56:03.367Z,6.49
2023-03-21T08:58:30.373Z,6.45
2023-03-21T09:00:57.266Z,6.48
2023-03-21T09:03:24.205Z,6.52
2023-03-21T09:05:54.077Z,6.53
2023-03-21T09:08:23.668Z,6.56
2023-03-21T09:10:53.414Z,6.52
2023-03-21T09:13:21.011Z,6.69
2023-03-21T09:15:48.129Z,6.75
2023-03-21T09:18:16.353Z,6.81
2023-03-21T09:20:44.838Z,6.84
2023-03-21T09:23:13.368Z,6.88
2023-03-21T09:25:41.388Z,6.90
2023-03-21T09:28:08.574Z,6.85
2023-03-21T09:30:37.257Z,6.95
2023-03-21T09:33:19.367Z,7.16
2023-03-21T09:35:46.277Z,7.21
2023-03-21T09:38:13.280Z,7.17
2023-03-21T09:41:07.252Z,7.23
2023-03-21T09:43:47.824Z,7.21
2023-03-21T09:46:25.543Z,7.15
2023-03-21T09:49:10.025Z,7.46
2023-03-21T09:51:41.576Z,7.58
2023-03-21T09:54:17.903Z,7.57
2023-03-21T09:56:46.109Z,7.52
2023-03-21T09:59:38.300Z,7.54
2023-03-21T10:02:32.330Z,7.40
2023-03-21T10:05:00.795Z,7.46
2023-03-21T10:07:32.081Z,7.47
2023-03-21T10:10:01.186Z,7.56
2023-03-21T10:12:30.745Z,7.64
2023-03-21T10:15:00.887Z,7.69
2023-03-21T10:17:27.702Z,7.78
2023-03-21T10:20:14.722Z,7.92
2023-03-21T10:22:43.018Z,7.99
2023-03-21T10:25:15.458Z,7.97
2023-03-21T10:27:42.478Z,7.90
2023-03-21T10:30:19.304Z,7.89
2023-03-21T10:32:46.099Z,7.96
2023-03-21T10:35:14.535Z,8.19
2023-03-21T10:37:41.452Z,8.60
2023-03-21T10:40:16.610Z,8.96
2023-03-21T10:42:43.979Z,9.11
2023-03-21T10:45:18.923Z,9.08
2023-03-21T10:47:48.980Z,9.00
2023-03-21T10:50:20.545Z,8.95
2023-03-21T10:52:53.606Z,8.88
2023-03-21T10:55:33.376Z,8.81
2023-03-21T10:58:07.713Z,8.79
2023-03-21T11:00:38.916Z,8.71
2023-03-21T11:03:06.918Z,8.70
2023-03-21T11:05:39.984Z,8.79
2023-03-21T11:08:12.542Z,8.84
2023-03-21T11:10:59.161Z,8.92
2023-03-21T11:13:33.224Z,8.90
2023-03-21T11:16:23.672Z,8.84
2023-03-21T11:18:52.837Z,8.86
2023-03-21T11:21:21.700Z,8.87
2023-03-21T11:23:52.162Z,8.83
2023-03-21T11:26:24.393Z,8.79
2023-03-21T11:28:54.518Z,8.75
2023-03-21T11:31:21.716Z,8.80
2023-03-21T11:33:57.196Z,8.88
2023-03-21T11:36:24.201Z,8.98
2023-03-21T11:38:58.377Z,9.03
2023-03-21T11:41:29.578Z,9.01
2023-03-21T11:43:57.333Z,8.96
2023-03-21T11:46:27.500Z,8.93
2023-03-21T11:48:56.557Z,8.90
2023-03-21T11:51:41.570Z,9.10
2023-03-21T11:54:45.591Z,9.45
2023-03-21T11:57:30.286Z,9.58
2023-03-21T12:00:15.466Z,9.42
2023-03-21T12:03:12.737Z,9.29
2023-03-21T12:06:03.663Z,9.36
2023-03-21T12:08:43.829Z,9.34
2023-03-21T12:11:26.085Z,9.22
2023-03-21T12:14:08.084Z,9.15
2023-03-21T12:17:03.885Z,9.14
2023-03-21T12:19:43.175Z,9.07
2023-03-21T12:22:45.936Z,9.03
2023-03-21T12:25:39.440Z,8.96
2023-03-21T12:28:33.040Z,9.01
2023-03-21T12:31:31.261Z,9.05
2023-03-21T12:34:19.394Z,9.04
2023-03-21T12:37:04.835Z,9.04
2023-03-21T12:39:40.488Z,9.14
2023-03-21T12:42:10.322Z,9.04
2023-03-21T12:44:41.852Z,9.02
2023-03-21T12:47:18.146Z,9.05
2023-03-21T12:49:55.422Z,9.00
2023-03-21T12:52:27.552Z,9.03
2023-03-21T12:55:00.820Z,8.98
2023-03-21T12:57:57.158Z,9.04
2023-03-21T13:00:50.066Z,9.02
2023-03-21T13:03:44.042Z,9.05
2023-03-21T13:06:14.977Z,9.12
2023-03-21T13:08:58.461Z,9.13
2023-03-21T13:11:29.340Z,9.06
2023-03-21T13:14:25.860Z,8.95
2023-03-21T13:17:00.953Z,8.97
2023-03-21T13:19:48.299Z,8.97
2023-03-21T13:22:27.474Z,8.94
2023-03-21T13:25:16.987Z,8.94
2023-03-21T13:27:51.681Z,8.91
2023-03-21T13:30:26.489Z,8.87
2023-03-21T13:33:13.781Z,8.87
2023-03-21T13:35:43.416Z,8.92
2023-03-21T13:38:26.712Z,8.96
2023-03-21T13:41:08.073Z,8.92
2023-03-21T13:44:07.013Z,8.96
2023-03-21T13:46:59.509Z,8.85
2023-03-21T13:49:33.914Z,8.83
2023-03-21T13:52:22.360Z,8.89
2023-03-21T13:54:53.477Z,9.08
2023-03-21T13:57:33.323Z,9.47
2023-03-21T14:00:18.135Z,9.85
2023-03-21T14:02:56.736Z,10.33
2023-03-21T14:05:25.999Z,10.50
2023-03-21T14:08:12.281Z,10.22
2023-03-21T14:10:54.127Z,9.96
2023-03-21T14:13:24.794Z,9.76
2023-03-21T14:16:13.545Z,9.55
2023-03-21T14:18:55.742Z,9.31
2023-03-21T14:21:31.911Z,9.06
2023-03-21T14:24:21.787Z,8.92
2023-03-21T14:26:51.695Z,8.76
2023-03-21T14:29:26.879Z,8.64
2023-03-21T14:31:56.398Z,8.63
2023-03-21T14:34:26.530Z,8.50
2023-03-21T14:36:58.155Z,8.46
2023-03-21T14:39:31.090Z,8.40
2023-03-21T14:42:04.886Z,8.37
2023-03-21T14:44:44.125Z,8.33
2023-03-21T14:47:26.478Z,8.33
2023-03-21T14:49:53.753Z,8.32
2023-03-21T14:52:29.912Z,8.29
2023-03-21T14:54:57.280Z,8.27
2023-03-21T14:57:30.620Z,8.26
2023-03-21T15:00:02.053Z,8.23
2023-03-21T15:02:35.384Z,8.20
2023-03-21T15:05:27.067Z,8.12
2023-03-21T15:08:03.286Z,8.00
2023-03-21T15:10:32.058Z,7.93
2023-03-21T15:13:13.568Z,7.87
2023-03-21T15:15:41.414Z,7.78
2023-03-21T15:18:14.763Z,7.70
2023-03-21T15:20:42.205Z,7.63
2023-03-21T15:23:29.003Z,7.55
2023-03-21T15:25:56.138Z,7.47
2023-03-21T15:28:22.944Z,7.45
2023-03-21T15:30:51.693Z,7.37
2023-03-21T15:33:19.325Z,7.34
2023-03-21T15:35:57.981Z,7.32
2023-03-21T15:38:30.052Z,7.26
2023-03-21T15:41:16.716Z,7.25
2023-03-21T15:43:43.902Z,7.19
2023-03-21T15:46:31.913Z,7.13
2023-03-21T15:49:08.825Z,6.99
2023-03-21T15:51:35.956Z,7.05
2023-03-21T15:54:03.881Z,6.99
2023-03-21T15:56:34.988Z,6.98
2023-03-21T15:59:04.538Z,7.03
2023-03-21T16:01:38.996Z,7.04
2023-03-21T16:04:10.677Z,7.03
2023-03-21T16:06:39.655Z,7.04
2023-03-21T16:09:09.393Z,7.02
2023-03-21T16:11:48.225Z,6.99
2023-03-21T16:14:14.998Z,6.93
2023-03-21T16:16:41.786Z,6.89
2023-03-21T16:19:08.633Z,6.90
2023-03-21T16:21:38.332Z,6.91
2023-03-21T16:24:11.373Z,6.90
2023-03-21T16:26:43.732Z,6.89
2023-03-21T16:29:12.400Z,6.90
2023-03-21T16:31:39.197Z,6.91
2023-03-21T16:34:07.350Z,6.88
2023-03-21T16:36:38.237Z,6.86
2023-03-21T16:39:26.785Z,6.88
2023-03-21T16:41:53.543Z,6.87
2023-03-21T16:44:20.677Z,6.82
2023-03-21T16:46:47.966Z,6.79
2023-03-21T16:49:20.498Z,6.79
2023-03-21T16:51:47.357Z,6.74
2023-03-21T16:54:14.154Z,6.72
2023-03-21T16:56:45.169Z,6.71
2023-03-21T16:59:15.617Z,6.74
2023-03-21T17:01:46.234Z,6.71
2023-03-21T17:04:13.815Z,6.67
2023-03-21T17:06:52.318Z,6.57
2023-03-21T17:09:22.532Z,6.48
2023-03-21T17:11:49.716Z,6.45
2023-03-21T17:14:21.623Z,6.45
2023-03-21T17:16:49.172Z,6.43
2023-03-21T17:19:24.041Z,6.39
2023-03-21T17:21:50.813Z,6.38
2023-03-21T17:24:17.691Z,6.38
2023-03-21T17:26:45.347Z,6.37
2023-03-21T17:29:15.703Z,6.36
2023-03-21T17:31:44.044Z,6.24
2023-03-21T17:34:11.197Z,6.34
2023-03-21T17:36:40.524Z,6.28
2023-03-21T17:39:12.868Z,6.20
2023-03-21T17:41:39.941Z,6.13
2023-03-21T17:44:06.931Z,6.16
2023-03-21T17:46:39.614Z,6.19
2023-03-21T17:49:06.614Z,6.19
2023-03-21T17:51:33.786Z,6.16
2023-03-21T17:54:00.898Z,6.24
2023-03-21T17:56:30.897Z,6.32
2023-03-21T17:59:00.198Z,6.37
2023-03-21T18:01:27.247Z,6.38
2023-03-21T18:03:57.203Z,6.42
2023-03-21T18:06:26.242Z,6.45
2023-03-21T18:08:53.736Z,6.50
2023-03-21T18:11:22.073Z,6.54
2023-03-21T18:13:49.176Z,6.53
2023-03-21T18:16:19.154Z,6.47
2023-03-21T18:18:46.874Z,6.46
2023-03-21T18:21:20.258Z,6.47
2023-03-21T18:23:47.487Z,6.47
2023-03-21T18:26:22.871Z,6.47
2023-03-21T18:29:39.272Z,6.45
2023-03-21T18:31:38.111Z,6.43
2023-03-21T18:34:04.867Z,6.45
2023-03-21T18:36:31.743Z,6.45
2023-03-21T18:38:58.912Z,6.46
2023-03-21T18:41:26.120Z,6.43
2023-03-21T18:44:02.680Z,6.41
2023-03-21T18:46:36.961Z,6.39
2023-03-21T18:49:33.929Z,6.39
2023-03-21T18:51:52.642Z,6.42
2023-03-21T18:54:19.673Z,6.25
2023-03-21T18:57:33.929Z,6.33
2023-03-21T18:59:39.339Z,6.26
2023-03-21T19:02:06.731Z,6.24
2023-03-21T19:04:34.349Z,6.22
2023-03-21T19:07:01.440Z,6.17
2023-03-21T19:09:31.955Z,6.10
2023-03-21T19:11:59.874Z,6.05
2023-03-21T19:14:27.120Z,6.01
2023-03-21T19:17:45.577Z,5.99
2023-03-21T19:19:43.411Z,6.02
2023-03-21T19:22:10.709Z,6.03
2023-03-21T19:24:37.462Z,6.03
2023-03-21T19:27:04.286Z,6.03
2023-03-21T19:29:31.140Z,5.98
2023-03-21T19:31:58.248Z,5.93
2023-03-21T19:34:25.013Z,5.89
2023-03-21T19:36:52.657Z,5.90
2023-03-21T19:39:22.785Z,5.90
2023-03-21T19:41:51.167Z,5.90
2023-03-21T19:44:19.310Z,5.86
2023-03-21T19:46:46.145Z,5.84
2023-03-21T19:49:13.086Z,5.83
2023-03-21T19:51:39.853Z,5.80
2023-03-21T19:54:07.633Z,5.73
2023-03-21T19:56:34.773Z,5.63
2023-03-21T19:59:03.221Z,5.64
2023-03-21T20:01:32.549Z,5.62
2023-03-21T20:04:00.008Z,5.59
2023-03-21T20:06:27.436Z,5.55
2023-03-21T20:09:34.159Z,5.49
2023-03-21T20:11:41.094Z,5.37
2023-03-21T20:14:07.992Z,5.39
2023-03-21T20:16:36.741Z,5.40
2023-03-21T20:19:10.112Z,5.44
2023-03-21T20:21:47.732Z,5.46
2023-03-21T20:24:16.960Z,5.46
2023-03-21T20:26:45.243Z,5.46
2023-03-21T20:31:59.675Z,5.42
2023-03-21T20:34:26.492Z,5.42
2023-03-21T20:36:53.420Z,5.48
2023-03-21T20:39:20.322Z,5.47
2023-03-21T20:41:47.078Z,5.46
2023-03-21T20:44:42.172Z,5.46
2023-03-21T20:47:00.670Z,5.41
2023-03-21T20:49:28.406Z,5.45
2023-03-21T20:54:43.559Z,5.38
2023-03-21T20:57:10.837Z,5.42
2023-03-21T20:59:37.734Z,5.41
2023-03-21T21:02:05.400Z,5.33
2023-03-21T21:05:15.650Z,5.32
2023-03-21T21:07:21.957Z,5.24
2023-03-21T21:09:49.335Z,5.21
2023-03-21T21:12:19.655Z,5.09
2023-03-21T21:14:47.930Z,5.21
2023-03-21T21:17:31.065Z,5.13
2023-03-21T21:20:12.186Z,5.14
2023-03-21T21:22:39.880Z,5.19
2023-03-21T21:25:07.324Z,5.17
2023-03-21T21:27:34.125Z,5.18
2023-03-21T21:30:02.855Z,5.21
2023-03-21T21:32:29.891Z,5.18
2023-03-21T21:34:57.434Z,5.17
2023-03-21T21:37:25.164Z,5.15
2023-03-21T21:39:51.989Z,5.16
2023-03-21T21:42:18.926Z,5.17
2023-03-21T21:44:47.374Z,5.17
2023-03-21T21:47:14.487Z,5.21
2023-03-21T21:49:41.742Z,5.21
2023-03-21T21:52:08.820Z,5.13
2023-03-21T21:54:36.016Z,5.17
2023-03-21T21:57:04.117Z,5.15
2023-03-21T21:59:31.058Z,5.10
2023-03-21T22:01:58.633Z,5.09
2023-03-21T22:04:27.952Z,5.10
2023-03-21T22:06:57.719Z,5.10
2023-03-21T22:09:24.430Z,5.08
2023-03-21T22:11:51.461Z,5.10
2023-03-21T22:14:18.188Z,5.10
2023-03-21T22:16:46.910Z,5.08
2023-03-21T22:19:13.766Z,5.08
2023-03-21T22:21:40.635Z,5.05
2023-03-21T22:24:07.533Z,5.06
2023-03-21T22:26:34.287Z,5.06
2023-03-21T22:29:01.931Z,4.97
2023-03-21T22:31:28.846Z,5.02
2023-03-21T22:33:55.571Z,4.99
2023-03-21T22:36:22.363Z,5.00
2023-03-21T22:38:49.091Z,5.00
2023-03-21T22:41:15.884Z,5.01
2023-03-21T22:43:42.607Z,5.05
2023-03-21T22:46:09.446Z,4.96
2023-03-21T22:48:36.428Z,5.07
2023-03-21T22:51:03.275Z,5.05
2023-03-21T22:53:30.050Z,5.06
2023-03-21T22:55:57.319Z,5.04
2023-03-21T22:58:24.040Z,5.04
2023-03-21T23:00:51.223Z,5.02
2023-03-21T23:03:18.170Z,5.04
2023-03-21T23:05:45.780Z,5.07
2023-03-21T23:08:13.436Z,5.06
2023-03-21T23:10:41.451Z,5.11
2023-03-21T23:13:09.936Z,5.08
2023-03-21T23:15:38.651Z,5.05
2023-03-21T23:18:05.587Z,5.04
2023-03-21T23:20:32.488Z,5.04
2023-03-21T23:22:59.185Z,5.01
2023-03-21T23:25:25.996Z,4.99
2023-03-21T23:27:52.737Z,4.97
2023-03-21T23:30:19.624Z,4.94
2023-03-21T23:32:46.668Z,4.92
2023-03-21T23:35:13.392Z,4.92
2023-03-21T23:37:42.497Z,4.92
2023-03-21T23:40:10.420Z,4.90
2023-03-21T23:42:37.325Z,4.92
2023-03-21T23:45:05.056Z,4.91
2023-03-21T23:47:31.810Z,4.91
2023-03-21T23:49:58.536Z,4.93
2023-03-21T23:52:25.475Z,4.93
2023-03-21T23:54:52.235Z,4.88
2023-03-21T23:57:19.080Z,4.82
2023-03-21T23:59:47.112Z,4.79
